sensor_id;sensor_type;location;lat;lon;timestamp;pressure;altitude;pressure_sealevel;temperature;humidity
2761;BME280;15420;48.636;9.798;2022-08-01T00:01:44;96760.00;;;23.98;55.44
2761;BME280;15420;48.636;9.798;2022-08-01T00:04:10;96758.38;;;23.94;55.13
2761;BME280;15420;48.636;9.798;2022-08-01T00:06:36;96753.28;;;23.89;55.66
2761;BME280;15420;48.636;9.798;2022-08-01T00:09:05;96753.41;;;23.86;55.30
2761;BME280;15420;48.636;9.798;2022-08-01T00:11:31;96763.16;;;23.83;55.50
2761;BME280;15420;48.636;9.798;2022-08-01T00:13:59;96756.28;;;23.78;55.71
2761;BME280;15420;48.636;9.798;2022-08-01T00:16:28;96756.41;;;23.74;55.86
2761;BME280;15420;48.636;9.798;2022-08-01T00:18:54;96758.28;;;23.70;56.08
2761;BME280;15420;48.636;9.798;2022-08-01T00:21:21;96755.84;;;23.64;56.03
2761;BME280;15420;48.636;9.798;2022-08-01T00:23:48;96762.06;;;23.62;56.25
2761;BME280;15420;48.636;9.798;2022-08-01T00:26:14;96766.50;;;23.60;56.72
2761;BME280;15420;48.636;9.798;2022-08-01T00:28:40;96763.97;;;23.57;56.40
2761;BME280;15420;48.636;9.798;2022-08-01T00:31:09;96771.00;;;23.56;56.54
2761;BME280;15420;48.636;9.798;2022-08-01T00:33:35;96762.31;;;23.53;57.22
2761;BME280;15420;48.636;9.798;2022-08-01T00:36:04;96764.13;;;23.51;56.43
2761;BME280;15420;48.636;9.798;2022-08-01T00:38:32;96760.78;;;23.45;56.39
2761;BME280;15420;48.636;9.798;2022-08-01T00:41:05;96760.00;;;23.42;56.35
2761;BME280;15420;48.636;9.798;2022-08-01T00:43:31;96767.13;;;23.38;56.58
2761;BME280;15420;48.636;9.798;2022-08-01T00:45:58;96760.19;;;23.36;56.28
2761;BME280;15420;48.636;9.798;2022-08-01T00:48:26;96761.13;;;23.33;56.37
2761;BME280;15420;48.636;9.798;2022-08-01T00:50:52;96763.84;;;23.30;55.82
2761;BME280;15420;48.636;9.798;2022-08-01T00:53:19;96763.03;;;23.28;56.35
2761;BME280;15420;48.636;9.798;2022-08-01T00:55:45;96767.50;;;23.26;56.67
2761;BME280;15420;48.636;9.798;2022-08-01T00:58:14;96768.44;;;23.24;56.09
2761;BME280;15420;48.636;9.798;2022-08-01T01:00:41;96765.03;;;23.20;56.32
2761;BME280;15420;48.636;9.798;2022-08-01T01:03:09;96766.81;;;23.20;56.16
2761;BME280;15420;48.636;9.798;2022-08-01T01:05:45;96772.97;;;23.19;56.46
2761;BME280;15420;48.636;9.798;2022-08-01T01:08:22;96767.78;;;23.15;56.71
2761;BME280;15420;48.636;9.798;2022-08-01T01:11:01;96767.06;;;23.10;56.79
2761;BME280;15420;48.636;9.798;2022-08-01T01:13:43;96778.53;;;23.08;56.72
2761;BME280;15420;48.636;9.798;2022-08-01T01:16:18;96771.69;;;23.02;56.42
2761;BME280;15420;48.636;9.798;2022-08-01T01:18:55;96771.78;;;22.99;56.58
2761;BME280;15420;48.636;9.798;2022-08-01T01:27:08;96773.84;;;22.88;57.17
2761;BME280;15420;48.636;9.798;2022-08-01T01:29:43;96775.72;;;22.85;57.52
2761;BME280;15420;48.636;9.798;2022-08-01T01:32:20;96775.84;;;22.80;57.81
2761;BME280;15420;48.636;9.798;2022-08-01T01:34:52;96777.63;;;22.78;57.26
2761;BME280;15420;48.636;9.798;2022-08-01T01:37:23;96782.97;;;22.75;57.98
2761;BME280;15420;48.636;9.798;2022-08-01T01:39:51;96785.72;;;22.70;57.72
2761;BME280;15420;48.636;9.798;2022-08-01T01:42:19;96778.78;;;22.68;57.71
2761;BME280;15420;48.636;9.798;2022-08-01T01:44:49;96780.63;;;22.64;58.23
2761;BME280;15420;48.636;9.798;2022-08-01T01:47:17;96785.91;;;22.63;58.50
2761;BME280;15420;48.636;9.798;2022-08-01T01:49:46;96786.94;;;22.57;58.68
2761;BME280;15420;48.636;9.798;2022-08-01T01:52:15;96782.63;;;22.55;58.59
2761;BME280;15420;48.636;9.798;2022-08-01T01:54:48;96780.06;;;22.51;58.59
2761;BME280;15420;48.636;9.798;2022-08-01T01:57:16;96781.03;;;22.49;58.71
2761;BME280;15420;48.636;9.798;2022-08-01T01:59:46;96781.09;;;22.46;58.44
2761;BME280;15420;48.636;9.798;2022-08-01T02:02:14;96770.66;;;22.43;58.73
2761;BME280;15420;48.636;9.798;2022-08-01T02:04:43;96782.13;;;22.40;58.85
2761;BME280;15420;48.636;9.798;2022-08-01T02:07:13;96777.81;;;22.38;59.96
2761;BME280;15420;48.636;9.798;2022-08-01T02:09:42;96781.41;;;22.34;59.73
2761;BME280;15420;48.636;9.798;2022-08-01T02:12:12;96771.88;;;22.30;59.45
2761;BME280;15420;48.636;9.798;2022-08-01T02:14:39;96787.69;;;22.28;59.46
2761;BME280;15420;48.636;9.798;2022-08-01T02:17:06;96780.78;;;22.24;59.89
2761;BME280;15420;48.636;9.798;2022-08-01T02:19:38;96787.00;;;22.20;60.06
2761;BME280;15420;48.636;9.798;2022-08-01T02:22:14;96788.81;;;22.18;60.49
2761;BME280;15420;48.636;9.798;2022-08-01T02:27:50;96798.56;;;22.13;60.54
2761;BME280;15420;48.636;9.798;2022-08-01T02:30:18;96787.28;;;22.09;61.44
2761;BME280;15420;48.636;9.798;2022-08-01T02:32:48;96786.44;;;22.07;61.43
2761;BME280;15420;48.636;9.798;2022-08-01T02:35:25;96783.84;;;22.06;60.51
2761;BME280;15420;48.636;9.798;2022-08-01T02:37:53;96793.56;;;22.02;61.29
2761;BME280;15420;48.636;9.798;2022-08-01T02:40:23;96797.06;;;22.03;61.50
2761;BME280;15420;48.636;9.798;2022-08-01T02:42:57;96789.19;;;22.03;61.74
2761;BME280;15420;48.636;9.798;2022-08-01T02:45:26;96794.41;;;22.04;61.60
2761;BME280;15420;48.636;9.798;2022-08-01T02:47:57;96779.53;;;22.03;60.82
2761;BME280;15420;48.636;9.798;2022-08-01T02:50:26;96783.94;;;22.03;61.79
2761;BME280;15420;48.636;9.798;2022-08-01T02:52:56;96789.16;;;22.04;60.87
2761;BME280;15420;48.636;9.798;2022-08-01T02:55:23;96795.31;;;22.02;61.89
2761;BME280;15420;48.636;9.798;2022-08-01T02:57:51;96794.44;;;22.01;61.16
2761;BME280;15420;48.636;9.798;2022-08-01T03:00:19;96794.44;;;22.01;61.16
2761;BME280;15420;48.636;9.798;2022-08-01T03:02:46;96789.19;;;22.01;62.10
2761;BME280;15420;48.636;9.798;2022-08-01T03:05:17;96786.63;;;21.98;62.03
2761;BME280;15420;48.636;9.798;2022-08-01T03:07:44;96790.13;;;21.99;61.44
2761;BME280;15420;48.636;9.798;2022-08-01T03:10:11;96785.78;;;21.98;62.10
2761;BME280;15420;48.636;9.798;2022-08-01T03:12:39;96793.66;;;21.98;61.56
2761;BME280;15420;48.636;9.798;2022-08-01T03:15:07;96793.59;;;21.99;61.67
2761;BME280;15420;48.636;9.798;2022-08-01T03:17:37;96786.63;;;21.98;61.60
2761;BME280;15420;48.636;9.798;2022-08-01T03:20:05;96791.91;;;21.97;62.60
2761;BME280;15420;48.636;9.798;2022-08-01T03:22:35;96785.81;;;21.96;62.29
2761;BME280;15420;48.636;9.798;2022-08-01T03:25:05;96798.91;;;21.98;62.49
2761;BME280;15420;48.636;9.798;2022-08-01T03:27:36;96797.13;;;21.98;62.89
2761;BME280;15420;48.636;9.798;2022-08-01T03:30:06;96797.16;;;21.97;62.33
2761;BME280;15420;48.636;9.798;2022-08-01T03:32:34;96796.31;;;21.96;62.61
2761;BME280;15420;48.636;9.798;2022-08-01T03:35:00;96798.94;;;21.96;62.37
2761;BME280;15420;48.636;9.798;2022-08-01T03:37:29;96801.56;;;21.96;62.40
2761;BME280;15420;48.636;9.798;2022-08-01T03:40:11;96799.78;;;21.97;62.64
2761;BME280;15420;48.636;9.798;2022-08-01T03:42:46;96803.31;;;21.96;62.49
2761;BME280;15420;48.636;9.798;2022-08-01T03:45:27;96804.16;;;21.98;63.14
2761;BME280;15420;48.636;9.798;2022-08-01T03:48:00;96809.44;;;21.96;63.52
2761;BME280;15420;48.636;9.798;2022-08-01T03:50:28;96808.59;;;21.94;62.43
2761;BME280;15420;48.636;9.798;2022-08-01T03:52:57;96804.22;;;21.95;63.50
2761;BME280;15420;48.636;9.798;2022-08-01T03:55:25;96803.38;;;21.93;63.36
2761;BME280;15420;48.636;9.798;2022-08-01T03:57:52;96810.41;;;21.92;63.29
2761;BME280;15420;48.636;9.798;2022-08-01T04:00:19;96799.00;;;21.93;63.49
2761;BME280;15420;48.636;9.798;2022-08-01T04:02:47;96806.00;;;21.93;63.26
2761;BME280;15420;48.636;9.798;2022-08-01T04:05:16;96799.88;;;21.94;64.11
2761;BME280;15420;48.636;9.798;2022-08-01T04:07:47;96807.69;;;21.95;64.06
2761;BME280;15420;48.636;9.798;2022-08-01T04:10:14;96804.19;;;21.96;63.81
2761;BME280;15420;48.636;9.798;2022-08-01T04:12:40;96802.44;;;21.95;64.38
2761;BME280;15420;48.636;9.798;2022-08-01T04:15:09;96805.03;;;21.97;63.77
2761;BME280;15420;48.636;9.798;2022-08-01T04:17:38;96805.94;;;21.96;63.90
2761;BME280;15420;48.636;9.798;2022-08-01T04:20:08;96808.53;;;21.97;63.70
2761;BME280;15420;48.636;9.798;2022-08-01T04:22:34;96816.41;;;21.97;64.45
2761;BME280;15420;48.636;9.798;2022-08-01T04:25:16;96817.25;;;21.98;63.34
2761;BME280;15420;48.636;9.798;2022-08-01T04:27:47;96819.84;;;21.99;63.92
2761;BME280;15420;48.636;9.798;2022-08-01T04:30:20;96819.81;;;22.01;64.05
2761;BME280;15420;48.636;9.798;2022-08-01T04:32:48;96822.44;;;22.02;63.97
2761;BME280;15420;48.636;9.798;2022-08-01T04:35:16;96833.75;;;22.04;63.97
2761;BME280;15420;48.636;9.798;2022-08-01T04:37:47;96829.38;;;22.05;64.02
2761;BME280;15420;48.636;9.798;2022-08-01T04:40:17;96830.19;;;22.07;63.28
2761;BME280;15420;48.636;9.798;2022-08-01T04:42:48;96839.81;;;22.08;63.99
2761;BME280;15420;48.636;9.798;2022-08-01T04:45:15;96828.47;;;22.06;64.07
2761;BME280;15420;48.636;9.798;2022-08-01T04:47:43;96836.28;;;22.09;63.98
2761;BME280;15420;48.636;9.798;2022-08-01T04:50:10;96835.38;;;22.10;64.11
2761;BME280;15420;48.636;9.798;2022-08-01T04:52:38;96835.34;;;22.11;64.36
2761;BME280;15420;48.636;9.798;2022-08-01T04:55:05;96837.94;;;22.13;63.94
2761;BME280;15420;48.636;9.798;2022-08-01T04:57:41;96838.72;;;22.16;63.89
2761;BME280;15420;48.636;9.798;2022-08-01T05:00:11;96839.56;;;22.18;63.73
2761;BME280;15420;48.636;9.798;2022-08-01T05:02:38;96844.72;;;22.22;64.05
2761;BME280;15420;48.636;9.798;2022-08-01T05:05:04;96840.25;;;22.25;63.42
2761;BME280;15420;48.636;9.798;2022-08-01T05:07:34;96834.09;;;22.28;63.38
2761;BME280;15420;48.636;9.798;2022-08-01T05:10:03;96845.38;;;22.31;63.07
2761;BME280;15420;48.636;9.798;2022-08-01T05:12:31;96842.66;;;22.34;63.35
2761;BME280;15420;48.636;9.798;2022-08-01T05:14:58;96844.34;;;22.37;63.23
2761;BME280;15420;48.636;9.798;2022-08-01T05:17:25;96846.03;;;22.39;63.30
2761;BME280;15420;48.636;9.798;2022-08-01T05:19:51;96838.97;;;22.43;63.04
2761;BME280;15420;48.636;9.798;2022-08-01T05:22:22;96846.75;;;22.46;63.36
2761;BME280;15420;48.636;9.798;2022-08-01T05:24:50;96840.59;;;22.47;63.22
2761;BME280;15420;48.636;9.798;2022-08-01T05:27:16;96837.91;;;22.50;62.67
2761;BME280;15420;48.636;9.798;2022-08-01T05:29:42;96838.72;;;22.52;63.31
2761;BME280;15420;48.636;9.798;2022-08-01T05:32:08;96834.28;;;22.54;62.86
2761;BME280;15420;48.636;9.798;2022-08-01T05:34:41;96838.56;;;22.58;62.54
2761;BME280;15420;48.636;9.798;2022-08-01T05:37:07;96839.44;;;22.59;62.81
2761;BME280;15420;48.636;9.798;2022-08-01T05:39:35;96841.13;;;22.61;62.82
2761;BME280;15420;48.636;9.798;2022-08-01T05:42:02;96837.59;;;22.62;62.72
2761;BME280;15420;48.636;9.798;2022-08-01T05:44:28;96839.28;;;22.65;62.71
2761;BME280;15420;48.636;9.798;2022-08-01T05:46:54;96838.34;;;22.67;62.87
2761;BME280;15420;48.636;9.798;2022-08-01T05:49:23;96841.78;;;22.69;63.01
2761;BME280;15420;48.636;9.798;2022-08-01T05:51:49;96845.25;;;22.71;62.92
2761;BME280;15420;48.636;9.798;2022-08-01T05:54:18;96839.97;;;22.71;62.96
2761;BME280;15420;48.636;9.798;2022-08-01T05:56:44;96845.19;;;22.73;63.63
2761;BME280;15420;48.636;9.798;2022-08-01T05:59:13;96837.22;;;22.76;63.42
2761;BME280;15420;48.636;9.798;2022-08-01T06:01:41;96839.88;;;22.76;63.85
2761;BME280;15420;48.636;9.798;2022-08-01T06:04:10;96840.69;;;22.79;63.87
2761;BME280;15420;48.636;9.798;2022-08-01T06:06:36;96845.88;;;22.81;64.22
2761;BME280;15420;48.636;9.798;2022-08-01T06:09:04;96838.88;;;22.81;64.29
2761;BME280;15420;48.636;9.798;2022-08-01T06:11:32;96845.84;;;22.82;64.06
2761;BME280;15420;48.636;9.798;2022-08-01T06:13:59;96837.06;;;22.83;64.16
2761;BME280;15420;48.636;9.798;2022-08-01T06:16:25;96840.56;;;22.84;64.66
2761;BME280;15420;48.636;9.798;2022-08-01T06:18:53;96844.91;;;22.85;64.58
2761;BME280;15420;48.636;9.798;2022-08-01T06:21:22;96844.78;;;22.88;64.86
2761;BME280;15420;48.636;9.798;2022-08-01T06:23:48;96850.88;;;22.90;64.41
2761;BME280;15420;48.636;9.798;2022-08-01T06:26:16;96847.31;;;22.93;64.42
2761;BME280;15420;48.636;9.798;2022-08-01T06:28:43;96855.09;;;22.96;64.59
2761;BME280;15420;48.636;9.798;2022-08-01T06:31:11;96850.66;;;22.98;64.48
2761;BME280;15420;48.636;9.798;2022-08-01T06:33:39;96850.53;;;23.02;64.24
2761;BME280;15420;48.636;9.798;2022-08-01T06:36:05;96851.38;;;23.04;64.56
2761;BME280;15420;48.636;9.798;2022-08-01T06:38:34;96846.88;;;23.08;64.33
2761;BME280;15420;48.636;9.798;2022-08-01T06:41:01;96848.53;;;23.12;64.42
2761;BME280;15420;48.636;9.798;2022-08-01T06:43:28;96852.78;;;23.16;64.22
2761;BME280;15420;48.636;9.798;2022-08-01T06:45:54;96858.88;;;23.18;64.13
2761;BME280;15420;48.636;9.798;2022-08-01T06:48:23;96854.41;;;23.22;64.25
2761;BME280;15420;48.636;9.798;2022-08-01T06:50:49;96855.13;;;23.27;64.10
2761;BME280;15420;48.636;9.798;2022-08-01T06:53:34;96852.38;;;23.31;63.76
2761;BME280;15420;48.636;9.798;2022-08-01T06:56:04;96851.38;;;23.35;63.64
2761;BME280;15420;48.636;9.798;2022-08-01T06:58:37;96853.84;;;23.41;63.79
2761;BME280;15420;48.636;9.798;2022-08-01T07:01:04;96850.13;;;23.48;63.59
2761;BME280;15420;48.636;9.798;2022-08-01T07:03:32;96853.53;;;23.52;63.30
2761;BME280;15420;48.636;9.798;2022-08-01T07:06:00;96844.66;;;23.56;63.62
2761;BME280;15420;48.636;9.798;2022-08-01T07:08:26;96842.72;;;23.63;63.43
2761;BME280;15420;48.636;9.798;2022-08-01T07:10:55;96848.72;;;23.68;63.34
2761;BME280;15420;48.636;9.798;2022-08-01T07:13:30;96850.28;;;23.73;63.02
2761;BME280;15420;48.636;9.798;2022-08-01T07:15:59;96847.53;;;23.78;62.67
2761;BME280;15420;48.636;9.798;2022-08-01T07:18:25;96843.91;;;23.82;62.46
2761;BME280;15420;48.636;9.798;2022-08-01T07:20:52;96848.97;;;23.88;62.83
2761;BME280;15420;48.636;9.798;2022-08-01T07:23:20;96841.72;;;23.95;62.32
2761;BME280;15420;48.636;9.798;2022-08-01T07:25:46;96839.91;;;23.97;62.84
2761;BME280;15420;48.636;9.798;2022-08-01T07:28:14;96846.75;;;24.02;62.70
2761;BME280;15420;48.636;9.798;2022-08-01T07:30:41;96837.84;;;24.06;62.54
2761;BME280;15420;48.636;9.798;2022-08-01T07:33:08;96835.94;;;24.11;62.17
2761;BME280;15420;48.636;9.798;2022-08-01T07:35:34;96837.56;;;24.16;62.45
2761;BME280;15420;48.636;9.798;2022-08-01T07:38:04;96833.84;;;24.21;62.29
2761;BME280;15420;48.636;9.798;2022-08-01T07:40:31;96840.72;;;24.27;62.21
2761;BME280;15420;48.636;9.798;2022-08-01T07:42:57;96842.31;;;24.32;62.29
2761;BME280;15420;48.636;9.798;2022-08-01T07:45:25;96844.78;;;24.37;61.52
2761;BME280;15420;48.636;9.798;2022-08-01T07:47:56;96842.88;;;24.42;61.37
2761;BME280;15420;48.636;9.798;2022-08-01T07:50:25;96837.50;;;24.45;61.29
2761;BME280;15420;48.636;9.798;2022-08-01T07:52:55;96839.06;;;24.51;61.38
2761;BME280;15420;48.636;9.798;2022-08-01T07:55:24;96837.16;;;24.56;60.17
2761;BME280;15420;48.636;9.798;2022-08-01T07:57:52;96845.75;;;24.61;60.53
2761;BME280;15420;48.636;9.798;2022-08-01T08:00:21;96835.81;;;24.69;59.84
2761;BME280;15420;48.636;9.798;2022-08-01T08:02:47;96833.09;;;24.72;59.22
2761;BME280;15420;48.636;9.798;2022-08-01T08:05:15;96833.78;;;24.77;59.23
2761;BME280;15420;48.636;9.798;2022-08-01T08:07:42;96837.06;;;24.84;58.62
2761;BME280;15420;48.636;9.798;2022-08-01T08:10:10;96838.59;;;24.91;58.42
2761;BME280;15420;48.636;9.798;2022-08-01T08:12:41;96837.63;;;24.93;58.07
2761;BME280;15420;48.636;9.798;2022-08-01T08:15:12;96832.97;;;25.00;57.95
2761;BME280;15420;48.636;9.798;2022-08-01T08:17:39;96838.03;;;25.06;58.49
2761;BME280;15420;48.636;9.798;2022-08-01T08:20:08;96838.69;;;25.13;58.46
2761;BME280;15420;48.636;9.798;2022-08-01T08:22:37;96829.53;;;25.23;58.00
2761;BME280;15420;48.636;9.798;2022-08-01T08:25:03;96835.38;;;25.31;57.43
2761;BME280;15420;48.636;9.798;2022-08-01T08:27:30;96834.13;;;25.41;57.47
2761;BME280;15420;48.636;9.798;2022-08-01T08:29:56;96842.69;;;25.48;57.61
2761;BME280;15420;48.636;9.798;2022-08-01T08:32:23;96837.97;;;25.56;56.92
2761;BME280;15420;48.636;9.798;2022-08-01T08:34:49;96848.22;;;25.65;56.97
2761;BME280;15420;48.636;9.798;2022-08-01T08:37:15;96840.00;;;25.72;56.30
2761;BME280;15420;48.636;9.798;2022-08-01T08:39:43;96839.78;;;25.79;56.55
2761;BME280;15420;48.636;9.798;2022-08-01T08:42:10;96846.59;;;25.84;56.40
2761;BME280;15420;48.636;9.798;2022-08-01T08:44:37;96845.50;;;25.90;55.83
2761;BME280;15420;48.636;9.798;2022-08-01T08:47:08;96846.78;;;26.01;55.39
2761;BME280;15420;48.636;9.798;2022-08-01T08:49:38;96845.56;;;26.10;55.35
2761;BME280;15420;48.636;9.798;2022-08-01T08:52:05;96846.91;;;26.20;54.81
2761;BME280;15420;48.636;9.798;2022-08-01T08:54:32;96847.47;;;26.28;54.40
2761;BME280;15420;48.636;9.798;2022-08-01T08:57:00;96843.69;;;26.35;54.57
2761;BME280;15420;48.636;9.798;2022-08-01T08:59:27;96845.16;;;26.43;53.94
2761;BME280;15420;48.636;9.798;2022-08-01T09:01:59;96846.50;;;26.53;54.27
2761;BME280;15420;48.636;9.798;2022-08-01T09:04:26;96840.78;;;26.63;54.26
2761;BME280;15420;48.636;9.798;2022-08-01T09:06:57;96844.75;;;26.74;53.81
2761;BME280;15420;48.636;9.798;2022-08-01T09:09:27;96843.44;;;26.84;52.97
2761;BME280;15420;48.636;9.798;2022-08-01T09:11:55;96843.09;;;26.91;52.69
2761;BME280;15420;48.636;9.798;2022-08-01T09:14:24;96845.53;;;26.97;52.20
2761;BME280;15420;48.636;9.798;2022-08-01T09:17:07;96849.47;;;27.08;52.21
2761;BME280;15420;48.636;9.798;2022-08-01T09:19:40;96851.97;;;27.11;51.79
2761;BME280;15420;48.636;9.798;2022-08-01T09:22:09;96843.69;;;27.18;51.41
2761;BME280;15420;48.636;9.798;2022-08-01T09:24:38;96847.88;;;27.24;51.17
2761;BME280;15420;48.636;9.798;2022-08-01T09:27:20;96846.88;;;27.26;50.72
2761;BME280;15420;48.636;9.798;2022-08-01T09:29:52;96848.59;;;27.27;50.76
2761;BME280;15420;48.636;9.798;2022-08-01T09:32:19;96854.53;;;27.32;50.84
2761;BME280;15420;48.636;9.798;2022-08-01T09:34:45;96845.41;;;27.40;50.81
2761;BME280;15420;48.636;9.798;2022-08-01T09:37:15;96841.41;;;27.50;50.48
2761;BME280;15420;48.636;9.798;2022-08-01T09:39:44;96846.97;;;27.64;50.32
2761;BME280;15420;48.636;9.798;2022-08-01T09:42:27;96852.78;;;27.72;50.17
2761;BME280;15420;48.636;9.798;2022-08-01T09:44:57;96856.84;;;27.79;49.72
2761;BME280;15420;48.636;9.798;2022-08-01T09:47:37;96855.44;;;27.91;49.28
2761;BME280;15420;48.636;9.798;2022-08-01T09:50:07;96855.22;;;27.95;49.02
2761;BME280;15420;48.636;9.798;2022-08-01T09:52:35;96852.41;;;27.98;48.89
2761;BME280;15420;48.636;9.798;2022-08-01T09:55:09;96853.06;;;28.04;48.21
2761;BME280;15420;48.636;9.798;2022-08-01T09:57:35;96852.00;;;28.08;48.14
2761;BME280;15420;48.636;9.798;2022-08-01T10:00:05;96850.66;;;28.16;48.37
2761;BME280;15420;48.636;9.798;2022-08-01T10:02:37;96851.81;;;28.29;47.74
2761;BME280;15420;48.636;9.798;2022-08-01T10:05:07;96858.53;;;28.37;47.52
2761;BME280;15420;48.636;9.798;2022-08-01T10:07:34;96851.22;;;28.42;47.17
2761;BME280;15420;48.636;9.798;2022-08-01T10:10:15;96848.41;;;28.45;46.57
2761;BME280;15420;48.636;9.798;2022-08-01T10:12:42;96832.22;;;28.51;46.30
2761;BME280;15420;48.636;9.798;2022-08-01T10:15:15;96839.47;;;28.64;46.41
2761;BME280;15420;48.636;9.798;2022-08-01T10:17:54;96833.47;;;28.78;45.79
2761;BME280;15420;48.636;9.798;2022-08-01T10:20:27;96830.41;;;28.87;45.67
2761;BME280;15420;48.636;9.798;2022-08-01T10:22:59;96830.94;;;28.94;44.72
2761;BME280;15420;48.636;9.798;2022-08-01T10:25:28;96823.34;;;29.04;44.65
2761;BME280;15420;48.636;9.798;2022-08-01T10:27:55;96818.41;;;29.13;44.29
2761;BME280;15420;48.636;9.798;2022-08-01T10:30:24;96817.47;;;29.14;43.45
2761;BME280;15420;48.636;9.798;2022-08-01T10:32:51;96819.25;;;29.14;44.40
2761;BME280;15420;48.636;9.798;2022-08-01T10:35:21;96821.06;;;29.13;44.06
2761;BME280;15420;48.636;9.798;2022-08-01T10:37:50;96822.84;;;29.13;43.86
2761;BME280;15420;48.636;9.798;2022-08-01T10:40:22;96824.31;;;29.18;43.22
2761;BME280;15420;48.636;9.798;2022-08-01T10:42:48;96817.25;;;29.35;43.72
2761;BME280;15420;48.636;9.798;2022-08-01T10:45:16;96812.47;;;29.58;42.74
2761;BME280;15420;48.636;9.798;2022-08-01T10:48:04;96818.25;;;29.82;41.93
2761;BME280;15420;48.636;9.798;2022-08-01T10:50:39;96809.50;;;29.96;41.75
2761;BME280;15420;48.636;9.798;2022-08-01T10:53:21;96806.88;;;30.12;41.74
2761;BME280;15420;48.636;9.798;2022-08-01T10:56:05;96814.81;;;30.27;40.98
2761;BME280;15420;48.636;9.798;2022-08-01T10:58:37;96809.72;;;30.39;40.59
2761;BME280;15420;48.636;9.798;2022-08-01T11:01:24;96804.56;;;30.51;40.65
2761;BME280;15420;48.636;9.798;2022-08-01T11:04:09;96806.63;;;30.62;40.31
2761;BME280;15420;48.636;9.798;2022-08-01T11:06:46;96804.41;;;30.84;40.66
2761;BME280;15420;48.636;9.798;2022-08-01T11:12:03;96797.34;;;31.42;39.06
2761;BME280;15420;48.636;9.798;2022-08-01T11:14:31;96799.34;;;31.67;39.07
2761;BME280;15420;48.636;9.798;2022-08-01T11:20:12;96811.16;;;32.32;38.27
2761;BME280;15420;48.636;9.798;2022-08-01T11:30:50;96795.88;;;33.52;35.89
2761;BME280;15420;48.636;9.798;2022-08-01T11:33:18;96804.72;;;33.77;34.88
2761;BME280;15420;48.636;9.798;2022-08-01T11:41:28;96784.41;;;34.24;33.48
2761;BME280;15420;48.636;9.798;2022-08-01T11:44:04;96785.59;;;34.20;33.66
2761;BME280;15420;48.636;9.798;2022-08-01T11:47:05;96784.25;;;34.02;33.24
2761;BME280;15420;48.636;9.798;2022-08-01T11:49:55;96787.84;;;33.64;34.00
2761;BME280;15420;48.636;9.798;2022-08-01T11:52:27;96785.63;;;33.33;34.40
2761;BME280;15420;48.636;9.798;2022-08-01T11:55:08;96783.06;;;33.06;35.49
2761;BME280;15420;48.636;9.798;2022-08-01T11:57:35;96800.75;;;32.81;35.86
2761;BME280;15420;48.636;9.798;2022-08-01T12:00:13;96794.91;;;32.62;35.98
2761;BME280;15420;48.636;9.798;2022-08-01T12:02:42;96786.31;;;32.44;36.47
2761;BME280;15420;48.636;9.798;2022-08-01T12:05:10;96789.59;;;32.35;36.83
2761;BME280;15420;48.636;9.798;2022-08-01T12:07:42;96800.56;;;32.31;37.09
2761;BME280;15420;48.636;9.798;2022-08-01T12:10:15;96799.63;;;32.32;37.27
2761;BME280;15420;48.636;9.798;2022-08-01T12:12:55;96795.03;;;32.34;37.26
2761;BME280;15420;48.636;9.798;2022-08-01T12:15:24;96788.53;;;32.38;36.92
2761;BME280;15420;48.636;9.798;2022-08-01T12:17:59;96782.69;;;32.45;36.33
2761;BME280;15420;48.636;9.798;2022-08-01T12:20:31;96782.28;;;32.51;36.93
2761;BME280;15420;48.636;9.798;2022-08-01T12:23:00;96779.63;;;32.51;36.51
2761;BME280;15420;48.636;9.798;2022-08-01T12:25:29;96778.22;;;32.46;36.55
2761;BME280;15420;48.636;9.798;2022-08-01T12:28:03;96783.41;;;32.35;36.63
2761;BME280;15420;48.636;9.798;2022-08-01T12:30:31;96785.28;;;32.20;36.79
2761;BME280;15420;48.636;9.798;2022-08-01T12:33:01;96781.03;;;32.03;37.13
2761;BME280;15420;48.636;9.798;2022-08-01T12:35:28;96781.81;;;31.91;37.57
2761;BME280;15420;48.636;9.798;2022-08-01T12:40:26;96779.94;;;31.65;37.95
2761;BME280;15420;48.636;9.798;2022-08-01T12:42:58;96792.97;;;31.55;37.81
2761;BME280;15420;48.636;9.798;2022-08-01T12:45:33;96796.41;;;31.43;38.45
2761;BME280;15420;48.636;9.798;2022-08-01T12:48:06;96800.59;;;31.33;38.84
2761;BME280;15420;48.636;9.798;2022-08-01T12:50:33;96793.94;;;31.26;39.31
2761;BME280;15420;48.636;9.798;2022-08-01T12:53:00;96798.28;;;31.12;39.21
2761;BME280;15420;48.636;9.798;2022-08-01T12:55:29;96799.78;;;31.02;41.78
2761;BME280;15420;48.636;9.798;2022-08-01T12:58:13;96808.88;;;30.84;49.35
2761;BME280;15420;48.636;9.798;2022-08-01T13:00:41;96795.22;;;30.60;52.02
2761;BME280;15420;48.636;9.798;2022-08-01T13:03:11;96790.06;;;30.41;54.64
2761;BME280;15420;48.636;9.798;2022-08-01T13:05:57;96798.94;;;30.26;55.67
2761;BME280;15420;48.636;9.798;2022-08-01T13:08:34;96787.41;;;30.11;57.03
2761;BME280;15420;48.636;9.798;2022-08-01T13:11:13;96777.22;;;30.04;56.46
2761;BME280;15420;48.636;9.798;2022-08-01T13:13:44;96777.44;;;29.99;57.40
2761;BME280;15420;48.636;9.798;2022-08-01T13:16:13;96774.88;;;29.98;58.35
2761;BME280;15420;48.636;9.798;2022-08-01T13:18:39;96765.25;;;29.95;58.06
2761;BME280;15420;48.636;9.798;2022-08-01T13:21:12;96766.97;;;29.96;58.44
2761;BME280;15420;48.636;9.798;2022-08-01T13:23:41;96763.53;;;29.94;56.97
2761;BME280;15420;48.636;9.798;2022-08-01T13:26:08;96770.84;;;29.90;56.02
2761;BME280;15420;48.636;9.798;2022-08-01T13:28:34;96766.47;;;29.89;56.94
2761;BME280;15420;48.636;9.798;2022-08-01T13:31:06;96762.19;;;29.87;57.92
2761;BME280;15420;48.636;9.798;2022-08-01T13:33:46;96763.28;;;29.83;56.59
2761;BME280;15420;48.636;9.798;2022-08-01T13:36:14;96758.31;;;29.77;55.97
2761;BME280;15420;48.636;9.798;2022-08-01T13:38:41;96763.81;;;29.74;54.97
2761;BME280;15420;48.636;9.798;2022-08-01T13:41:26;96761.31;;;29.71;55.29
2761;BME280;15420;48.636;9.798;2022-08-01T13:43:52;96753.34;;;29.71;54.77
2761;BME280;15420;48.636;9.798;2022-08-01T13:46:21;96757.63;;;29.73;56.30
2761;BME280;15420;48.636;9.798;2022-08-01T13:48:49;96754.28;;;29.85;55.29
2761;BME280;15420;48.636;9.798;2022-08-01T13:51:15;96757.69;;;30.19;54.88
2761;BME280;15420;48.636;9.798;2022-08-01T13:53:44;96761.72;;;30.86;53.51
2761;BME280;15420;48.636;9.798;2022-08-01T13:56:10;96763.84;;;31.66;50.91